createdAt,value
2022-11-26T00:01:22.813Z,16.48
2022-11-26T00:03:49.776Z,13.38
2022-11-26T00:06:47.776Z,12.02
2022-11-26T00:09:19.315Z,14.45
2022-11-26T00:11:46.229Z,15.63
2022-11-26T00:14:16.809Z,14.75
2022-11-26T00:16:44.812Z,11.80
2022-11-26T00:19:11.844Z,11.30
2022-11-26T00:21:41.206Z,12.40
2022-11-26T00:24:27.228Z,13.65
2022-11-26T00:26:56.232Z,8.75
2022-11-26T00:29:23.222Z,12.15
2022-11-26T00:31:50.139Z,9.15
2022-11-26T00:34:17.044Z,10.15
2022-11-26T00:36:44.938Z,10.88
2022-11-26T00:39:17.073Z,8.13
2022-11-26T00:41:48.790Z,12.60
2022-11-26T00:44:25.657Z,12.68
2022-11-26T00:46:52.907Z,11.13
2022-11-26T00:49:20.928Z,10.45
2022-11-26T00:51:48.174Z,12.18
2022-11-26T00:54:17.994Z,11.23
2022-11-26T00:56:45.767Z,14.13
2022-11-26T00:59:14.926Z,11.30
2022-11-26T01:01:42.030Z,13.68
2022-11-26T01:04:09.371Z,11.73
2022-11-26T01:06:40.331Z,12.45
2022-11-26T01:09:12.883Z,14.95
2022-11-26T01:11:39.804Z,13.15
2022-11-26T01:14:07.196Z,14.32
2022-11-26T01:16:39.390Z,13.18
2022-11-26T01:19:06.367Z,14.77
2022-11-26T01:21:33.559Z,11.90
2022-11-26T01:24:00.445Z,13.88
2022-11-26T01:26:32.826Z,15.75
2022-11-26T01:28:59.732Z,13.00
2022-11-26T01:31:29.158Z,11.45
2022-11-26T01:33:57.166Z,11.35
2022-11-26T01:36:26.774Z,11.85
2022-11-26T01:39:02.932Z,14.27
2022-11-26T01:41:47.451Z,9.93
2022-11-26T01:44:24.012Z,13.00
2022-11-26T01:46:55.106Z,13.25
2022-11-26T01:49:29.382Z,12.75
2022-11-26T01:52:24.476Z,14.32
2022-11-26T01:54:53.521Z,16.48
2022-11-26T01:57:25.206Z,12.02
2022-11-26T01:59:55.169Z,12.60
2022-11-26T02:02:25.437Z,11.65
2022-11-26T02:05:07.736Z,11.48
2022-11-26T02:07:36.297Z,11.07
2022-11-26T02:10:03.986Z,11.82
2022-11-26T02:12:31.013Z,10.73
2022-11-26T02:14:57.956Z,11.15
2022-11-26T02:17:24.805Z,11.75
2022-11-26T02:20:00.420Z,14.10
2022-11-26T02:22:57.017Z,10.50
2022-11-26T02:25:23.800Z,10.82
2022-11-26T02:28:05.552Z,11.80
2022-11-26T02:30:37.992Z,11.98
2022-11-26T02:33:11.800Z,11.57
2022-11-26T02:35:38.600Z,12.18
2022-11-26T02:38:13.733Z,10.70
2022-11-26T02:40:40.611Z,13.57
2022-11-26T02:43:07.432Z,12.50
2022-11-26T02:45:41.095Z,10.10
2022-11-26T02:48:13.589Z,10.43
2022-11-26T02:50:48.097Z,10.48
2022-11-26T02:53:17.733Z,10.43
2022-11-26T02:55:49.886Z,12.60
2022-11-26T02:58:18.902Z,11.85
2022-11-26T03:00:48.498Z,12.20
2022-11-26T03:03:30.234Z,11.50
2022-11-26T03:06:02.102Z,12.20
2022-11-26T03:08:30.725Z,12.48
2022-11-26T03:10:57.916Z,12.50
2022-11-26T03:13:24.949Z,13.85
2022-11-26T03:15:52.117Z,12.45
2022-11-26T03:18:19.134Z,12.13
2022-11-26T03:20:45.985Z,12.30
2022-11-26T03:23:12.813Z,13.05
2022-11-26T03:25:39.988Z,13.68
2022-11-26T03:28:07.177Z,11.25
2022-11-26T03:30:34.051Z,13.38
2022-11-26T03:33:00.880Z,10.65
2022-11-26T03:35:27.788Z,14.75
2022-11-26T03:37:54.795Z,13.25
2022-11-26T03:40:21.720Z,11.75
2022-11-26T03:42:48.542Z,13.82
2022-11-26T03:45:15.434Z,11.15
2022-11-26T03:47:42.270Z,12.65
2022-11-26T03:50:09.573Z,11.98
2022-11-26T03:52:36.624Z,13.05
2022-11-26T03:55:03.581Z,15.10
2022-11-26T03:57:30.451Z,11.55
2022-11-26T03:59:57.376Z,13.18
2022-11-26T04:02:24.298Z,13.82
2022-11-26T04:04:51.340Z,11.95
2022-11-26T04:07:18.442Z,11.15
2022-11-26T04:09:45.343Z,12.13
2022-11-26T04:12:12.188Z,12.02
2022-11-26T04:14:39.250Z,13.82
2022-11-26T04:17:06.427Z,12.90
2022-11-26T04:19:33.265Z,13.93
2022-11-26T04:22:00.134Z,11.65
2022-11-26T04:24:27.117Z,14.23
2022-11-26T04:26:54.087Z,11.50
2022-11-26T04:29:21.052Z,14.38
2022-11-26T04:31:48.037Z,14.25
2022-11-26T04:34:14.936Z,11.23
2022-11-26T04:36:41.862Z,11.10
2022-11-26T04:39:08.727Z,12.82
2022-11-26T04:41:35.561Z,13.80
2022-11-26T04:44:02.440Z,12.57
2022-11-26T04:46:29.337Z,13.70
2022-11-26T04:48:56.240Z,13.88
2022-11-26T04:51:23.100Z,13.40
2022-11-26T04:53:51.407Z,14.27
2022-11-26T04:56:21.540Z,14.63
2022-11-26T04:58:48.468Z,15.00
2022-11-26T05:01:15.461Z,13.63
2022-11-26T05:03:42.887Z,17.10
2022-11-26T05:06:10.903Z,13.85
2022-11-26T05:08:37.833Z,13.93
2022-11-26T05:11:05.095Z,15.77
2022-11-26T05:13:32.066Z,12.63
2022-11-26T05:15:59.124Z,13.02
2022-11-26T05:18:25.981Z,15.98
2022-11-26T05:20:52.809Z,14.73
2022-11-26T05:23:19.706Z,13.00
2022-11-26T05:25:47.928Z,15.63
2022-11-26T05:28:14.925Z,15.98
2022-11-26T05:30:42.071Z,11.55
2022-11-26T05:33:08.967Z,14.52
2022-11-26T05:35:37.625Z,12.43
2022-11-26T05:38:04.587Z,13.07
2022-11-26T05:40:31.544Z,15.50
2022-11-26T05:42:58.434Z,16.95
2022-11-26T05:45:25.330Z,16.80
2022-11-26T05:47:52.259Z,17.02
2022-11-26T05:50:19.257Z,15.18
2022-11-26T05:52:46.176Z,15.32
2022-11-26T05:55:13.165Z,13.88
2022-11-26T05:57:40.113Z,14.48
2022-11-26T06:00:07.728Z,13.93
2022-11-26T06:02:39.377Z,13.02
2022-11-26T06:05:07.013Z,13.93
2022-11-26T06:07:33.993Z,14.30
2022-11-26T06:10:01.097Z,14.15
2022-11-26T06:12:28.329Z,12.52
2022-11-26T06:14:55.190Z,13.52
2022-11-26T06:17:22.186Z,12.18
2022-11-26T06:19:49.179Z,14.55
2022-11-26T06:22:16.059Z,13.90
2022-11-26T06:24:42.979Z,13.68
2022-11-26T06:27:10.438Z,12.38
2022-11-26T06:29:37.313Z,12.00
2022-11-26T06:32:04.557Z,10.95
2022-11-26T06:34:31.439Z,13.35
2022-11-26T06:36:58.297Z,11.20
2022-11-26T06:39:25.236Z,11.30
2022-11-26T06:41:52.144Z,15.63
2022-11-26T06:44:19.148Z,13.90
2022-11-26T06:46:46.107Z,13.57
2022-11-26T06:49:13.010Z,14.40
2022-11-26T06:51:40.022Z,15.20
2022-11-26T06:54:06.868Z,17.92
2022-11-26T06:56:35.794Z,13.27
2022-11-26T06:59:02.850Z,14.27
2022-11-26T07:01:30.074Z,14.10
2022-11-26T07:03:57.026Z,14.27
2022-11-26T07:06:26.674Z,15.73
2022-11-26T07:08:54.986Z,13.55
2022-11-26T07:11:22.546Z,12.88
2022-11-26T07:13:49.629Z,14.07
2022-11-26T07:16:16.880Z,12.98
2022-11-26T07:18:47.542Z,12.88
2022-11-26T07:21:14.464Z,13.60
2022-11-26T07:23:42.077Z,10.70
2022-11-26T07:26:10.810Z,14.15
2022-11-26T07:28:38.056Z,12.50
2022-11-26T07:31:16.172Z,11.57
2022-11-26T07:33:44.062Z,18.00
2022-11-26T07:36:22.254Z,10.85
2022-11-26T07:38:49.825Z,12.07
2022-11-26T07:41:20.084Z,14.18
2022-11-26T07:43:47.306Z,11.80
2022-11-26T07:46:17.288Z,13.80
2022-11-26T07:48:44.674Z,10.15
2022-11-26T07:51:23.711Z,11.50
2022-11-26T07:53:51.552Z,8.82
2022-11-26T07:56:19.482Z,6.75
2022-11-26T07:58:46.834Z,9.23
2022-11-26T08:01:19.476Z,7.65
2022-11-26T08:03:48.709Z,8.82
2022-11-26T08:06:18.356Z,10.57
2022-11-26T08:08:45.268Z,8.63
2022-11-26T08:11:18.030Z,10.88
2022-11-26T08:13:45.963Z,7.95
2022-11-26T08:16:13.881Z,7.85
2022-11-26T08:18:40.942Z,9.27
2022-11-26T08:21:08.195Z,9.27
2022-11-26T08:23:35.560Z,10.48
2022-11-26T08:26:23.796Z,9.38
2022-11-26T08:28:52.510Z,8.32
2022-11-26T08:31:19.822Z,9.95
2022-11-26T08:33:46.818Z,10.02
2022-11-26T08:36:13.821Z,12.73
2022-11-26T08:38:40.869Z,11.55
2022-11-26T08:41:11.357Z,9.63
2022-11-26T08:44:05.241Z,13.77
2022-11-26T08:46:26.240Z,11.10
2022-11-26T08:48:56.596Z,11.02
2022-11-26T08:51:24.435Z,9.63
2022-11-26T08:53:51.366Z,10.35
2022-11-26T08:56:18.288Z,12.35
2022-11-26T08:58:45.710Z,13.75
2022-11-26T09:01:14.737Z,12.18
2022-11-26T09:03:41.934Z,11.70
2022-11-26T09:06:09.924Z,9.55
2022-11-26T09:09:06.277Z,10.15
2022-11-26T09:11:36.043Z,10.13
2022-11-26T09:14:03.718Z,10.13
2022-11-26T09:16:31.285Z,10.48
2022-11-26T09:19:01.144Z,14.23
2022-11-26T09:21:28.065Z,12.18
2022-11-26T09:23:55.380Z,10.55
2022-11-26T09:26:22.871Z,10.57
2022-11-26T09:28:49.746Z,10.95
2022-11-26T09:31:17.856Z,13.05
2022-11-26T09:33:45.225Z,12.07
2022-11-26T09:36:14.812Z,11.38
2022-11-26T09:38:42.286Z,9.60
2022-11-26T09:41:24.030Z,11.38
2022-11-26T09:44:14.276Z,16.02
2022-11-26T09:47:24.086Z,8.80
2022-11-26T09:50:19.457Z,8.73
2022-11-26T09:52:46.312Z,9.77
2022-11-26T09:55:18.633Z,8.88
2022-11-26T09:58:10.877Z,10.05
2022-11-26T10:00:46.694Z,10.43
2022-11-26T10:03:23.199Z,8.40
2022-11-26T10:05:59.073Z,7.97
2022-11-26T10:08:30.218Z,8.02
2022-11-26T10:11:08.941Z,8.23
2022-11-26T10:13:57.445Z,9.55
2022-11-26T10:16:29.679Z,9.05
2022-11-26T10:19:05.411Z,8.00
2022-11-26T10:24:29.525Z,9.88
2022-11-26T10:26:59.030Z,9.23
2022-11-26T10:29:39.405Z,8.55
2022-11-26T10:32:39.899Z,9.55
2022-11-26T10:35:07.432Z,9.05
2022-11-26T10:37:34.593Z,11.77
2022-11-26T10:40:07.515Z,8.88
2022-11-26T10:42:43.660Z,8.15
2022-11-26T10:45:21.003Z,8.45
2022-11-26T10:47:48.051Z,9.23
2022-11-26T10:50:46.519Z,9.93
2022-11-26T10:53:07.077Z,8.13
2022-11-26T10:55:43.682Z,6.63
2022-11-26T10:58:24.273Z,8.07
2022-11-26T11:00:51.269Z,7.22
2022-11-26T11:03:33.152Z,9.45
2022-11-26T11:06:21.394Z,9.73
2022-11-26T11:08:50.378Z,7.68
2022-11-26T11:11:28.711Z,7.10
2022-11-26T11:13:56.869Z,7.10
2022-11-26T11:16:29.831Z,6.55
2022-11-26T11:18:59.767Z,8.10
2022-11-26T11:21:34.498Z,6.97
2022-11-26T11:24:16.650Z,9.98
2022-11-26T11:26:46.422Z,6.68
2022-11-26T11:29:37.631Z,6.28
2022-11-26T11:32:37.638Z,7.32
2022-11-26T11:35:26.019Z,7.82
2022-11-26T11:37:54.959Z,8.55
2022-11-26T11:40:29.140Z,9.30
2022-11-26T11:43:05.212Z,6.43
2022-11-26T11:45:41.896Z,6.20
2022-11-26T11:48:29.851Z,4.75
2022-11-26T11:51:11.959Z,5.85
2022-11-26T11:54:29.546Z,12.98
2022-11-26T11:57:19.466Z,6.32
2022-11-26T12:00:13.612Z,6.70
2022-11-26T12:02:55.593Z,8.07
2022-11-26T12:06:03.079Z,8.07
2022-11-26T12:09:04.205Z,7.22
2022-11-26T12:11:55.848Z,6.90
2022-11-26T12:14:38.633Z,7.43
2022-11-26T12:17:16.438Z,7.22
2022-11-26T12:19:49.349Z,6.70
2022-11-26T12:22:24.636Z,6.57
2022-11-26T12:25:01.730Z,7.25
2022-11-26T12:28:01.790Z,6.45
2022-11-26T12:30:40.739Z,6.43
2022-11-26T12:33:17.075Z,7.35
2022-11-26T12:35:53.899Z,9.68
2022-11-26T12:38:37.036Z,6.47
2022-11-26T12:41:10.971Z,6.47
2022-11-26T12:43:52.919Z,5.18
2022-11-26T12:46:28.770Z,5.25
2022-11-26T12:49:22.883Z,5.63
2022-11-26T12:51:56.561Z,5.13
2022-11-26T12:54:38.654Z,6.03
2022-11-26T12:57:26.924Z,3.88
2022-11-26T12:59:56.650Z,4.28
2022-11-26T13:02:39.533Z,7.72
2022-11-26T13:05:07.133Z,4.28
2022-11-26T13:08:19.264Z,10.80
2022-11-26T13:11:10.057Z,7.95
2022-11-26T13:13:55.529Z,5.78
2022-11-26T13:16:38.036Z,5.38
2022-11-26T13:19:27.517Z,5.47
2022-11-26T13:22:18.796Z,5.07
2022-11-26T13:25:19.189Z,5.43
2022-11-26T13:27:58.216Z,5.05
2022-11-26T13:30:48.626Z,5.25
2022-11-26T13:33:41.919Z,5.43
2022-11-26T13:36:46.804Z,10.95
2022-11-26T13:39:38.576Z,5.90
2022-11-26T13:42:26.999Z,8.10
2022-11-26T13:44:56.564Z,5.55
2022-11-26T13:47:42.136Z,7.10
2022-11-26T13:50:23.288Z,7.60
2022-11-26T13:52:56.525Z,5.43
2022-11-26T13:55:52.731Z,6.35
2022-11-26T13:58:29.200Z,6.05
2022-11-26T14:00:56.418Z,6.63
2022-11-26T14:03:44.233Z,5.47
2022-11-26T14:06:11.804Z,5.65
2022-11-26T14:08:43.317Z,5.30
2022-11-26T14:11:11.650Z,4.72
2022-11-26T14:13:38.920Z,5.88
2022-11-26T14:16:07.942Z,5.93
2022-11-26T14:18:52.896Z,4.45
2022-11-26T14:21:21.108Z,5.85
2022-11-26T14:23:51.748Z,6.63
2022-11-26T14:26:25.643Z,5.80
2022-11-26T14:29:14.252Z,8.43
2022-11-26T14:31:51.748Z,4.60
2022-11-26T14:34:38.916Z,7.75
2022-11-26T14:37:14.544Z,8.07
2022-11-26T14:39:41.451Z,8.52
2022-11-26T14:42:15.575Z,7.45
2022-11-26T14:44:42.836Z,6.13
2022-11-26T14:47:20.962Z,5.90
2022-11-26T14:49:54.465Z,6.88
2022-11-26T14:52:29.096Z,4.93
2022-11-26T14:55:01.179Z,5.93
2022-11-26T14:57:49.487Z,6.72
2022-11-26T15:00:16.445Z,9.75
2022-11-26T15:02:48.459Z,7.97
2022-11-26T15:05:17.303Z,5.65
2022-11-26T15:07:45.268Z,9.00
2022-11-26T15:10:15.271Z,7.60
2022-11-26T15:12:47.611Z,8.93
2022-11-26T15:15:18.407Z,11.85
2022-11-26T15:17:52.550Z,12.82
2022-11-26T15:20:20.542Z,15.32
2022-11-26T15:23:00.205Z,10.68
2022-11-26T15:25:29.199Z,10.98
2022-11-26T15:28:01.492Z,12.90
2022-11-26T15:30:30.029Z,15.32
2022-11-26T15:33:08.840Z,19.13
2022-11-26T15:35:36.595Z,22.40
2022-11-26T15:38:13.628Z,21.23
2022-11-26T15:40:54.077Z,25.25
2022-11-26T15:43:30.230Z,25.70
2022-11-26T15:46:21.596Z,30.65
2022-11-26T15:49:01.218Z,19.42
2022-11-26T15:51:35.858Z,16.25
2022-11-26T15:54:20.411Z,17.48
2022-11-26T15:56:52.747Z,16.15
2022-11-26T15:59:20.844Z,25.13
2022-11-26T16:01:48.197Z,14.52
2022-11-26T16:04:33.211Z,16.08
2022-11-26T16:07:20.002Z,22.48
2022-11-26T16:09:48.449Z,15.18
2022-11-26T16:13:04.735Z,14.75
2022-11-26T16:15:31.932Z,17.57
2022-11-26T16:17:59.006Z,19.67
2022-11-26T16:20:28.355Z,24.83
2022-11-26T16:22:58.770Z,17.75
2022-11-26T16:25:31.769Z,20.83
2022-11-26T16:28:14.813Z,36.42
2022-11-26T16:30:44.256Z,33.83
2022-11-26T16:33:11.390Z,23.15
2022-11-26T16:35:47.096Z,16.20
2022-11-26T16:38:26.000Z,20.20
2022-11-26T16:40:53.101Z,21.85
2022-11-26T16:43:20.543Z,29.63
2022-11-26T16:45:49.652Z,27.95
2022-11-26T16:48:26.678Z,30.77
2022-11-26T16:50:57.035Z,37.90
2022-11-26T16:53:23.963Z,30.17
2022-11-26T16:55:53.671Z,28.73
2022-11-26T16:58:29.301Z,23.38
2022-11-26T17:00:57.236Z,27.88
2022-11-26T17:03:27.498Z,23.83
2022-11-26T17:05:58.558Z,22.20
2022-11-26T17:08:25.553Z,24.67
2022-11-26T17:10:52.510Z,25.88
2022-11-26T17:13:20.732Z,21.48
2022-11-26T17:15:49.410Z,26.23
2022-11-26T17:18:25.967Z,19.73
2022-11-26T17:20:54.022Z,23.70
2022-11-26T17:23:21.390Z,19.52
2022-11-26T17:25:54.341Z,18.35
2022-11-26T17:28:23.341Z,20.95
2022-11-26T17:30:51.063Z,24.13
2022-11-26T17:33:19.159Z,19.70
2022-11-26T17:35:46.832Z,15.50
2022-11-26T17:38:20.055Z,14.80
2022-11-26T17:40:48.056Z,10.18
2022-11-26T17:43:15.155Z,11.40
2022-11-26T17:45:42.220Z,8.55
2022-11-26T17:48:14.242Z,16.67
2022-11-26T17:50:41.549Z,17.83
2022-11-26T17:53:08.591Z,11.88
2022-11-26T17:55:35.845Z,19.88
2022-11-26T17:58:02.749Z,17.65
2022-11-26T18:00:30.290Z,20.77
2022-11-26T18:02:57.442Z,19.15
2022-11-26T18:05:24.676Z,22.40
2022-11-26T18:07:51.988Z,20.90
2022-11-26T18:10:20.734Z,24.20
2022-11-26T18:12:48.192Z,19.77
2022-11-26T18:15:20.668Z,20.95
2022-11-26T18:17:51.139Z,21.20
2022-11-26T18:20:21.537Z,24.88
2022-11-26T18:22:59.769Z,29.05
2022-11-26T18:25:27.969Z,23.38
2022-11-26T18:27:55.078Z,24.33
2022-11-26T18:30:22.607Z,20.17
2022-11-26T18:32:49.659Z,24.15
2022-11-26T18:35:17.301Z,24.83
2022-11-26T18:37:44.729Z,22.60
2022-11-26T18:40:15.163Z,23.92
2022-11-26T18:42:42.071Z,25.23
2022-11-26T18:45:11.851Z,19.90
2022-11-26T18:47:39.200Z,19.90
2022-11-26T18:50:07.850Z,22.30
2022-11-26T18:52:35.140Z,22.35
2022-11-26T18:55:04.906Z,21.83
2022-11-26T18:57:32.440Z,23.67
2022-11-26T18:59:59.327Z,19.75
2022-11-26T19:02:26.346Z,26.35
2022-11-26T19:04:53.439Z,22.13
2022-11-26T19:07:20.372Z,20.52
2022-11-26T19:09:48.582Z,20.95
2022-11-26T19:12:15.492Z,26.55
2022-11-26T19:14:42.424Z,23.50
2022-11-26T19:17:09.547Z,21.80
2022-11-26T19:19:38.452Z,21.25
2022-11-26T19:22:05.565Z,19.70
2022-11-26T19:24:32.458Z,20.38
2022-11-26T19:26:59.485Z,20.60
2022-11-26T19:29:26.328Z,27.08
2022-11-26T19:31:53.615Z,20.45
2022-11-26T19:34:20.648Z,23.27
2022-11-26T19:36:48.647Z,23.95
2022-11-26T19:39:16.892Z,20.52
2022-11-26T19:41:44.314Z,20.38
2022-11-26T19:44:11.658Z,19.90
2022-11-26T19:46:41.484Z,21.33
2022-11-26T19:49:12.571Z,19.85
2022-11-26T19:51:40.508Z,19.25
2022-11-26T19:54:07.536Z,21.95
2022-11-26T19:56:35.400Z,22.10
2022-11-26T19:59:02.529Z,21.27
2022-11-26T20:01:31.852Z,21.95
2022-11-26T20:04:01.274Z,20.48
2022-11-26T20:06:29.809Z,19.20
2022-11-26T20:08:58.443Z,20.33
2022-11-26T20:11:26.754Z,21.98
2022-11-26T20:13:54.542Z,22.13
2022-11-26T20:16:25.183Z,22.15
2022-11-26T20:18:52.266Z,26.77
2022-11-26T20:21:22.215Z,25.08
2022-11-26T20:23:50.358Z,23.17
2022-11-26T20:26:23.177Z,24.55
2022-11-26T20:28:50.253Z,24.85
2022-11-26T20:31:23.060Z,23.48
2022-11-26T20:33:54.124Z,23.42
2022-11-26T20:36:23.191Z,28.63
2022-11-26T20:38:54.989Z,23.60
2022-11-26T20:41:23.324Z,20.60
2022-11-26T20:43:56.528Z,27.98
2022-11-26T20:46:26.194Z,27.10
2022-11-26T20:48:53.202Z,25.35
2022-11-26T20:51:22.151Z,20.60
2022-11-26T20:53:50.794Z,20.70
2022-11-26T20:56:22.429Z,22.08
2022-11-26T20:58:51.049Z,29.08
2022-11-26T21:01:23.891Z,22.17
2022-11-26T21:03:52.266Z,24.27
2022-11-26T21:06:25.942Z,23.42
2022-11-26T21:09:01.127Z,23.25
2022-11-26T21:11:29.240Z,21.33
2022-11-26T21:13:58.600Z,21.33
2022-11-26T21:16:26.289Z,29.13
2022-11-26T21:18:56.845Z,26.27
2022-11-26T21:21:25.452Z,22.63
2022-11-26T21:23:53.226Z,27.42
2022-11-26T21:26:22.982Z,24.92
2022-11-26T21:28:55.409Z,20.02
2022-11-26T21:31:23.337Z,21.67
2022-11-26T21:33:58.022Z,20.52
2022-11-26T21:36:25.460Z,23.52
2022-11-26T21:38:52.600Z,19.50
2022-11-26T21:41:20.246Z,21.48
2022-11-26T21:43:48.236Z,19.70
2022-11-26T21:46:21.171Z,19.55
2022-11-26T21:48:48.419Z,18.90
2022-11-26T21:51:19.638Z,23.33
2022-11-26T21:53:48.314Z,18.23
2022-11-26T21:56:17.886Z,20.13
2022-11-26T21:58:45.124Z,25.15
2022-11-26T22:01:16.976Z,23.05
2022-11-26T22:03:46.168Z,20.75
2022-11-26T22:06:14.070Z,19.63
2022-11-26T22:08:41.556Z,21.02
2022-11-26T22:11:14.040Z,16.02
2022-11-26T22:13:41.452Z,17.10
2022-11-26T22:16:10.528Z,19.15
2022-11-26T22:18:42.132Z,17.27
2022-11-26T22:21:21.371Z,17.30
2022-11-26T22:23:49.004Z,18.77
2022-11-26T22:26:15.847Z,19.27
2022-11-26T22:28:42.981Z,19.80
2022-11-26T22:31:12.161Z,16.25
2022-11-26T22:33:39.737Z,16.08
2022-11-26T22:36:06.830Z,19.08
2022-11-26T22:38:34.191Z,17.42
2022-11-26T22:41:03.145Z,21.05
2022-11-26T22:43:31.200Z,16.80
2022-11-26T22:45:58.883Z,21.05
2022-11-26T22:48:25.937Z,17.45
2022-11-26T22:50:54.526Z,21.60
2022-11-26T22:53:22.639Z,20.80
2022-11-26T22:55:57.301Z,18.17
2022-11-26T22:58:25.697Z,18.13
2022-11-26T23:00:59.201Z,22.10
2022-11-26T23:03:27.864Z,18.60
2022-11-26T23:05:55.461Z,19.30
2022-11-26T23:08:22.981Z,18.15
2022-11-26T23:10:50.041Z,21.55
2022-11-26T23:13:17.641Z,20.77
2022-11-26T23:15:45.994Z,17.02
2022-11-26T23:18:15.254Z,17.48
2022-11-26T23:20:43.020Z,20.05
2022-11-26T23:23:10.606Z,21.83
2022-11-26T23:25:39.307Z,18.70
2022-11-26T23:28:06.864Z,19.52
2022-11-26T23:30:35.098Z,17.67
2022-11-26T23:33:02.023Z,20.45
2022-11-26T23:35:29.198Z,20.02
2022-11-26T23:37:56.252Z,21.25
2022-11-26T23:40:23.217Z,18.85
2022-11-26T23:42:50.125Z,22.17
2022-11-26T23:45:17.184Z,16.60
2022-11-26T23:47:44.106Z,20.92
2022-11-26T23:50:12.494Z,20.23
2022-11-26T23:52:39.375Z,19.38
2022-11-26T23:55:06.718Z,21.67
2022-11-26T23:57:33.612Z,19.45
